createdAt,value
2023-05-19T00:01:21.760Z,9.90
2023-05-19T00:04:25.100Z,4.60
2023-05-19T00:07:32.808Z,8.20
2023-05-19T00:10:36.689Z,8.50
2023-05-19T00:13:39.850Z,9.50
2023-05-19T00:16:43.406Z,9.90
2023-05-19T00:19:46.809Z,9.50
2023-05-19T00:22:51.213Z,9.90
2023-05-19T00:25:54.270Z,6.90
2023-05-19T00:28:57.458Z,9.10
2023-05-19T00:32:00.553Z,9.90
2023-05-19T00:35:03.662Z,9.40
2023-05-19T00:38:06.949Z,10.50
2023-05-19T00:41:10.148Z,10.30
2023-05-19T00:44:13.257Z,9.10
2023-05-19T00:47:16.934Z,9.50
2023-05-19T00:50:20.030Z,8.60
2023-05-19T00:53:24.724Z,11.20
2023-05-19T00:56:27.879Z,12.20
2023-05-19T00:59:30.999Z,11.00
2023-05-19T01:02:34.990Z,11.10
2023-05-19T01:05:40.303Z,11.20
2023-05-19T01:08:43.602Z,10.80
2023-05-19T01:11:46.595Z,10.40
2023-05-19T01:14:50.364Z,11.60
2023-05-19T01:18:11.432Z,10.10
2023-05-19T01:21:36.981Z,11.40
2023-05-19T01:24:58.793Z,8.30
2023-05-19T01:28:34.519Z,10.80
2023-05-19T01:31:40.176Z,11.20
2023-05-19T01:34:47.264Z,9.00
2023-05-19T01:37:55.203Z,7.30
2023-05-19T01:41:04.454Z,6.90
2023-05-19T01:44:10.076Z,11.10
2023-05-19T01:47:19.288Z,10.70
2023-05-19T01:50:23.873Z,7.50
2023-05-19T01:53:27.159Z,10.10
2023-05-19T01:56:50.349Z,9.60
2023-05-19T02:00:06.618Z,9.60
2023-05-19T02:03:31.009Z,9.70
2023-05-19T02:06:50.131Z,8.40
2023-05-19T02:10:06.515Z,9.60
2023-05-19T02:13:21.669Z,9.80
2023-05-19T02:16:30.411Z,9.00
2023-05-19T02:19:42.604Z,8.80
2023-05-19T02:22:46.071Z,9.60
2023-05-19T02:25:57.050Z,9.90
2023-05-19T02:29:02.692Z,10.60
2023-05-19T02:32:08.819Z,10.00
2023-05-19T02:35:13.539Z,8.80
2023-05-19T02:38:26.575Z,10.20
2023-05-19T02:41:30.852Z,10.80
2023-05-19T02:44:34.244Z,10.00
2023-05-19T02:47:39.102Z,10.50
2023-05-19T02:50:46.929Z,10.20
2023-05-19T02:53:50.559Z,6.00
2023-05-19T02:56:54.182Z,9.90
2023-05-19T02:59:58.368Z,10.40
2023-05-19T03:03:03.488Z,10.40
2023-05-19T03:06:08.870Z,10.70
2023-05-19T03:09:13.027Z,10.70
2023-05-19T03:12:18.616Z,11.10
2023-05-19T03:18:29.378Z,10.70
2023-05-19T03:21:34.682Z,11.20
2023-05-19T03:24:37.964Z,11.30
2023-05-19T03:27:43.648Z,11.30
2023-05-19T03:30:52.293Z,10.90
2023-05-19T03:33:57.926Z,12.00
2023-05-19T03:37:01.689Z,10.90
2023-05-19T03:40:07.069Z,11.10
2023-05-19T03:43:10.929Z,12.50
2023-05-19T03:46:14.961Z,12.70
2023-05-19T03:49:19.519Z,12.00
2023-05-19T03:52:26.175Z,10.90
2023-05-19T03:55:31.415Z,10.50
2023-05-19T03:58:37.137Z,11.10
2023-05-19T04:01:42.083Z,12.10
2023-05-19T04:04:46.392Z,9.90
2023-05-19T04:07:49.999Z,10.60
2023-05-19T04:10:54.265Z,11.70
2023-05-19T04:13:57.426Z,10.40
2023-05-19T04:17:00.910Z,11.40
2023-05-19T04:20:06.476Z,9.50
2023-05-19T04:23:12.607Z,11.10
2023-05-19T04:26:18.093Z,10.30
2023-05-19T04:29:24.332Z,10.90
2023-05-19T04:32:30.473Z,9.90
2023-05-19T04:36:06.203Z,10.40
2023-05-19T04:39:30.509Z,9.30
2023-05-19T04:42:47.652Z,10.10
2023-05-19T04:45:51.932Z,9.80
2023-05-19T04:48:57.815Z,10.60
2023-05-19T04:52:01.502Z,7.70
2023-05-19T04:55:05.625Z,6.20
2023-05-19T04:58:09.496Z,8.80
2023-05-19T05:01:33.281Z,6.80
2023-05-19T05:04:36.923Z,8.90
2023-05-19T05:07:41.661Z,7.50
2023-05-19T05:10:54.165Z,8.30
2023-05-19T05:13:59.902Z,8.40
2023-05-19T05:17:03.491Z,9.00
2023-05-19T05:20:08.858Z,8.30
2023-05-19T05:23:14.840Z,9.20
2023-05-19T05:26:25.206Z,8.40
2023-05-19T05:29:28.270Z,8.40
2023-05-19T05:32:32.353Z,6.70
2023-05-19T05:35:35.393Z,8.20
2023-05-19T05:38:39.418Z,7.70
2023-05-19T05:41:43.058Z,7.80
2023-05-19T05:44:46.670Z,7.20
2023-05-19T05:47:51.035Z,7.40
2023-05-19T05:50:56.917Z,6.90
2023-05-19T05:54:01.169Z,7.90
2023-05-19T05:57:04.684Z,6.80
2023-05-19T06:00:16.134Z,6.30
2023-05-19T06:03:24.600Z,7.10
2023-05-19T06:06:28.545Z,7.20
2023-05-19T06:09:33.024Z,6.90
2023-05-19T06:12:41.166Z,6.50
2023-05-19T06:15:44.913Z,6.60
2023-05-19T06:18:48.260Z,5.90
2023-05-19T06:21:52.447Z,6.70
2023-05-19T06:24:58.070Z,6.30
2023-05-19T06:28:01.311Z,5.50
2023-05-19T06:31:04.626Z,5.70
2023-05-19T06:34:10.843Z,5.50
2023-05-19T06:37:19.748Z,6.60
2023-05-19T06:40:23.332Z,5.90
2023-05-19T06:43:27.187Z,7.00
2023-05-19T06:46:30.424Z,5.90
2023-05-19T06:49:33.742Z,6.20
2023-05-19T06:52:39.305Z,6.20
2023-05-19T06:55:58.217Z,5.50
2023-05-19T06:59:03.230Z,6.10
2023-05-19T07:02:07.280Z,5.10
2023-05-19T07:05:15.601Z,4.70
2023-05-19T07:08:37.479Z,5.20
2023-05-19T07:11:41.725Z,5.40
2023-05-19T07:14:45.802Z,5.40
2023-05-19T07:17:51.722Z,5.20
2023-05-19T07:20:55.920Z,5.70
2023-05-19T07:23:59.445Z,5.50
2023-05-19T07:27:04.417Z,5.60
2023-05-19T07:30:09.043Z,5.30
2023-05-19T07:33:12.494Z,5.10
2023-05-19T07:36:16.010Z,5.00
2023-05-19T07:39:19.555Z,4.80
2023-05-19T07:42:32.103Z,5.10
2023-05-19T07:45:36.436Z,5.20
2023-05-19T07:48:39.534Z,5.50
2023-05-19T07:51:43.131Z,4.80
2023-05-19T07:54:48.606Z,5.00
2023-05-19T07:57:53.160Z,5.30
2023-05-19T08:01:00.835Z,5.00
2023-05-19T08:04:04.008Z,4.60
2023-05-19T08:07:07.458Z,5.00
2023-05-19T08:10:11.133Z,5.20
2023-05-19T08:13:15.016Z,5.20
2023-05-19T08:16:18.380Z,4.90
2023-05-19T08:19:22.269Z,4.90
2023-05-19T08:22:26.143Z,4.80
2023-05-19T08:25:29.608Z,4.00
2023-05-19T08:28:32.803Z,4.30
2023-05-19T08:31:36.639Z,4.40
2023-05-19T08:34:39.886Z,4.80
2023-05-19T08:37:43.850Z,3.70
2023-05-19T08:40:48.771Z,4.00
2023-05-19T08:43:52.006Z,4.30
2023-05-19T08:46:58.299Z,4.40
2023-05-19T08:50:08.669Z,3.90
2023-05-19T08:56:36.376Z,4.10
2023-05-19T08:59:41.598Z,4.10
2023-05-19T09:02:59.690Z,5.30
2023-05-19T09:06:14.082Z,4.60
2023-05-19T09:09:17.582Z,4.60
2023-05-19T09:12:21.274Z,4.50
2023-05-19T09:15:28.749Z,4.10
2023-05-19T09:18:32.350Z,3.90
2023-05-19T09:21:36.448Z,3.90
2023-05-19T09:24:40.915Z,4.20
2023-05-19T09:27:44.330Z,4.10
2023-05-19T09:30:47.402Z,4.50
2023-05-19T09:33:54.358Z,4.60
2023-05-19T09:37:00.069Z,3.70
2023-05-19T09:40:05.984Z,4.80
2023-05-19T09:43:11.024Z,4.10
2023-05-19T09:46:16.057Z,4.20
2023-05-19T09:49:24.195Z,4.70
2023-05-19T09:52:28.495Z,4.40
2023-05-19T09:55:34.025Z,4.30
2023-05-19T09:58:38.257Z,4.70
2023-05-19T10:01:46.571Z,3.70
2023-05-19T10:04:51.331Z,4.10
2023-05-19T10:07:55.972Z,4.20
2023-05-19T10:11:00.276Z,3.60
2023-05-19T10:14:04.771Z,4.30
2023-05-19T10:17:10.087Z,4.20
2023-05-19T10:20:16.159Z,4.20
2023-05-19T10:23:19.850Z,3.80
2023-05-19T10:26:25.327Z,4.60
2023-05-19T10:29:34.967Z,4.50
2023-05-19T10:32:40.618Z,4.30
2023-05-19T10:36:14.470Z,4.10
2023-05-19T10:39:27.960Z,4.90
2023-05-19T10:42:42.162Z,5.10
2023-05-19T10:45:49.735Z,5.30
2023-05-19T10:48:52.869Z,5.30
2023-05-19T10:51:58.324Z,4.80
2023-05-19T10:58:04.732Z,5.60
2023-05-19T11:01:18.715Z,5.80
2023-05-19T11:04:41.309Z,5.50
2023-05-19T11:08:04.749Z,5.80
2023-05-19T11:14:24.221Z,5.90
2023-05-19T11:17:27.567Z,5.20
2023-05-19T11:20:35.263Z,5.50
2023-05-19T11:23:40.780Z,5.40
2023-05-19T11:26:43.950Z,5.70
2023-05-19T11:29:48.620Z,6.80
2023-05-19T11:32:52.585Z,5.90
2023-05-19T11:36:00.430Z,6.10
2023-05-19T11:39:06.214Z,6.30
2023-05-19T11:42:11.013Z,5.70
2023-05-19T11:45:14.873Z,6.00
2023-05-19T11:48:21.817Z,5.70
2023-05-19T11:51:25.168Z,6.10
2023-05-19T11:54:33.827Z,6.10
2023-05-19T11:57:38.437Z,6.20
2023-05-19T12:00:43.215Z,6.60
2023-05-19T12:03:46.747Z,7.40
2023-05-19T12:06:50.146Z,6.30
2023-05-19T12:09:55.571Z,6.90
2023-05-19T12:12:59.969Z,6.50
2023-05-19T12:16:05.458Z,6.80
2023-05-19T12:19:08.824Z,7.40
2023-05-19T12:22:12.955Z,7.40
2023-05-19T12:25:17.108Z,7.20
2023-05-19T12:28:20.286Z,7.00
2023-05-19T12:31:24.142Z,7.60
2023-05-19T12:34:27.183Z,7.30
2023-05-19T12:37:30.382Z,8.00
2023-05-19T12:40:35.311Z,7.60
2023-05-19T12:43:39.807Z,7.00
2023-05-19T12:46:44.750Z,7.40
2023-05-19T12:50:00.360Z,6.90
2023-05-19T12:53:03.619Z,7.30
2023-05-19T12:56:14.726Z,6.90
2023-05-19T13:03:00.741Z,6.70
2023-05-19T13:06:04.070Z,7.10
2023-05-19T13:09:07.413Z,7.30
2023-05-19T13:12:10.323Z,7.70
2023-05-19T13:15:13.259Z,7.10
2023-05-19T13:18:16.343Z,6.90
2023-05-19T13:21:19.571Z,7.90
2023-05-19T13:24:22.668Z,6.80
2023-05-19T13:27:25.596Z,7.10
2023-05-19T13:30:28.661Z,7.40
2023-05-19T13:33:32.292Z,7.80
2023-05-19T13:36:36.857Z,7.40
2023-05-19T13:39:40.637Z,8.90
2023-05-19T13:42:43.892Z,14.40
2023-05-19T13:45:46.974Z,9.80
2023-05-19T13:48:49.854Z,8.10
2023-05-19T13:51:57.318Z,7.70
2023-05-19T13:55:00.227Z,7.60
2023-05-19T13:58:03.782Z,7.40
2023-05-19T14:01:06.682Z,7.90
2023-05-19T14:04:10.711Z,8.30
2023-05-19T14:07:13.903Z,7.50
2023-05-19T14:10:16.818Z,6.90
2023-05-19T14:13:32.647Z,8.20
2023-05-19T14:16:38.359Z,7.50
2023-05-19T14:19:41.378Z,7.60
2023-05-19T14:22:44.316Z,7.60
2023-05-19T14:25:47.232Z,8.00
2023-05-19T14:28:50.131Z,7.10
2023-05-19T14:31:53.249Z,8.10
2023-05-19T14:34:56.376Z,8.70
2023-05-19T14:37:59.287Z,8.40
2023-05-19T14:41:02.936Z,8.90
2023-05-19T14:44:06.122Z,9.10
2023-05-19T14:47:11.407Z,8.50
2023-05-19T14:50:14.571Z,8.40
2023-05-19T14:53:17.587Z,9.60
2023-05-19T14:56:22.154Z,9.30
2023-05-19T14:59:25.190Z,9.00
2023-05-19T15:02:29.689Z,9.70
2023-05-19T15:05:32.877Z,10.40
2023-05-19T15:08:37.868Z,9.80
2023-05-19T15:11:40.981Z,9.30
2023-05-19T15:14:43.854Z,8.60
2023-05-19T15:17:48.031Z,8.90
2023-05-19T15:20:50.938Z,9.50
2023-05-19T15:23:53.945Z,9.60
2023-05-19T15:26:56.838Z,9.20
2023-05-19T15:29:59.744Z,9.60
2023-05-19T15:33:02.678Z,9.20
2023-05-19T15:36:06.007Z,10.30
2023-05-19T15:39:09.884Z,9.60
2023-05-19T15:42:12.808Z,9.60
2023-05-19T15:45:15.739Z,11.00
2023-05-19T15:48:18.664Z,9.70
2023-05-19T15:51:21.930Z,11.70
2023-05-19T15:54:25.650Z,10.30
2023-05-19T15:57:28.958Z,10.70
2023-05-19T16:00:32.043Z,10.00
2023-05-19T16:03:35.229Z,11.10
2023-05-19T16:06:38.295Z,10.50
2023-05-19T16:09:41.134Z,10.90
2023-05-19T16:12:44.072Z,10.70
2023-05-19T16:15:47.273Z,10.60
2023-05-19T16:18:50.646Z,9.70
2023-05-19T16:21:53.668Z,10.90
2023-05-19T16:24:56.556Z,11.80
2023-05-19T16:27:59.576Z,10.10
2023-05-19T16:31:02.887Z,10.50
2023-05-19T16:34:05.757Z,11.30
2023-05-19T16:37:08.767Z,11.00
2023-05-19T16:40:12.102Z,11.30
2023-05-19T16:43:14.983Z,11.30
2023-05-19T16:46:17.879Z,11.90
2023-05-19T16:49:20.964Z,12.60
2023-05-19T16:52:24.034Z,9.60
2023-05-19T16:55:27.123Z,12.00
2023-05-19T16:58:31.021Z,10.50
2023-05-19T17:01:34.158Z,11.20
2023-05-19T17:04:37.046Z,12.00
2023-05-19T17:07:39.908Z,12.60
2023-05-19T17:10:42.762Z,12.90
2023-05-19T17:13:46.457Z,11.80
2023-05-19T17:16:49.575Z,12.20
2023-05-19T17:19:52.602Z,11.80
2023-05-19T17:22:55.483Z,11.40
2023-05-19T17:26:02.083Z,11.70
2023-05-19T17:29:06.032Z,12.80
2023-05-19T17:32:09.084Z,13.60
2023-05-19T17:35:12.088Z,12.80
2023-05-19T17:38:15.129Z,13.00
2023-05-19T17:41:18.048Z,12.80
2023-05-19T17:44:23.202Z,14.10
2023-05-19T17:47:26.362Z,15.30
2023-05-19T17:50:29.241Z,13.40
2023-05-19T17:53:32.385Z,12.40
2023-05-19T17:56:41.593Z,12.60
2023-05-19T17:59:45.080Z,14.10
2023-05-19T18:02:48.441Z,14.90
2023-05-19T18:05:51.903Z,15.80
2023-05-19T18:08:58.146Z,14.50
2023-05-19T18:12:02.473Z,13.30
2023-05-19T18:15:06.130Z,14.40
2023-05-19T18:18:10.723Z,14.30
2023-05-19T18:21:17.855Z,15.20
2023-05-19T18:24:29.076Z,15.40
2023-05-19T18:27:33.568Z,16.10
2023-05-19T18:30:36.729Z,17.20
2023-05-19T18:33:39.796Z,17.80
2023-05-19T18:36:42.746Z,16.50
2023-05-19T18:39:45.751Z,19.30
2023-05-19T18:42:48.625Z,15.60
2023-05-19T18:45:51.595Z,17.30
2023-05-19T18:48:54.789Z,17.70
2023-05-19T18:51:57.786Z,17.10
2023-05-19T18:55:01.304Z,17.70
2023-05-19T18:58:04.798Z,16.20
2023-05-19T19:01:07.730Z,16.70
2023-05-19T19:04:10.685Z,14.10
2023-05-19T19:07:13.633Z,14.00
2023-05-19T19:10:16.693Z,13.90
2023-05-19T19:13:19.740Z,19.60
2023-05-19T19:16:22.829Z,15.00
2023-05-19T19:19:30.034Z,18.10
2023-05-19T19:22:33.264Z,17.60
2023-05-19T19:25:36.174Z,17.40
2023-05-19T19:28:39.194Z,17.90
2023-05-19T19:31:42.439Z,18.40
2023-05-19T19:34:45.544Z,17.70
2023-05-19T19:37:48.737Z,15.80
2023-05-19T19:40:52.766Z,17.80
2023-05-19T19:43:56.154Z,16.60
2023-05-19T19:46:59.693Z,17.80
2023-05-19T19:50:05.750Z,17.00
2023-05-19T19:53:09.056Z,18.00
2023-05-19T19:56:11.995Z,16.50
2023-05-19T19:59:16.041Z,16.30
2023-05-19T20:02:19.083Z,13.90
2023-05-19T20:05:22.331Z,14.70
2023-05-19T20:08:26.018Z,17.70
2023-05-19T20:11:29.130Z,17.90
2023-05-19T20:14:32.286Z,15.80
2023-05-19T20:17:37.231Z,11.40
2023-05-19T20:20:41.269Z,18.80
2023-05-19T20:23:44.384Z,17.60
2023-05-19T20:26:47.569Z,18.30
2023-05-19T20:29:50.641Z,17.60
2023-05-19T20:32:53.618Z,14.40
2023-05-19T20:35:56.560Z,17.00
2023-05-19T20:38:59.860Z,15.50
2023-05-19T20:42:02.754Z,16.10
2023-05-19T20:45:06.434Z,18.40
2023-05-19T20:48:11.247Z,18.80
2023-05-19T20:51:14.422Z,19.20
2023-05-19T20:54:19.863Z,17.80
2023-05-19T20:57:22.827Z,17.80
2023-05-19T21:00:25.859Z,19.50
2023-05-19T21:03:30.611Z,19.30
2023-05-19T21:06:33.970Z,16.60
2023-05-19T21:09:36.911Z,17.50
2023-05-19T21:12:39.879Z,16.70
2023-05-19T21:15:42.768Z,16.80
2023-05-19T21:18:45.706Z,17.20
2023-05-19T21:21:49.596Z,17.20
2023-05-19T21:24:53.202Z,16.60
2023-05-19T21:27:56.207Z,16.30
2023-05-19T21:30:59.253Z,14.90
2023-05-19T21:34:02.962Z,16.70
2023-05-19T21:37:05.861Z,16.50
2023-05-19T21:40:09.845Z,17.90
2023-05-19T21:43:13.000Z,16.80
2023-05-19T21:46:15.876Z,17.00
2023-05-19T21:49:18.854Z,17.80
2023-05-19T21:52:22.059Z,16.90
2023-05-19T21:55:24.961Z,17.50
2023-05-19T21:58:27.859Z,16.10
2023-05-19T22:01:30.869Z,17.70
2023-05-19T22:04:33.794Z,17.90
2023-05-19T22:07:36.797Z,18.50
2023-05-19T22:10:39.668Z,18.40
2023-05-19T22:13:42.628Z,18.30
2023-05-19T22:16:47.598Z,16.50
2023-05-19T22:19:50.690Z,17.20
2023-05-19T22:22:53.656Z,18.10
2023-05-19T22:25:56.504Z,17.60
2023-05-19T22:28:59.372Z,17.70
2023-05-19T22:32:02.363Z,17.00
2023-05-19T22:35:06.688Z,19.00
2023-05-19T22:38:10.671Z,18.10
2023-05-19T22:41:13.807Z,16.90
2023-05-19T22:44:18.202Z,18.50
2023-05-19T22:47:21.795Z,17.10
2023-05-19T22:50:24.854Z,13.20
2023-05-19T22:53:27.702Z,15.60
2023-05-19T22:56:30.550Z,17.00
2023-05-19T22:59:33.766Z,15.80
2023-05-19T23:02:36.816Z,16.90
2023-05-19T23:05:40.228Z,13.80
2023-05-19T23:08:46.736Z,14.30
2023-05-19T23:11:50.236Z,12.80
2023-05-19T23:14:53.133Z,10.40
2023-05-19T23:17:56.076Z,9.70
2023-05-19T23:20:59.041Z,15.60
2023-05-19T23:24:02.097Z,14.40
2023-05-19T23:27:05.712Z,16.70
2023-05-19T23:30:09.123Z,15.50
2023-05-19T23:33:12.060Z,15.20
2023-05-19T23:36:16.706Z,14.30
2023-05-19T23:39:19.711Z,14.00
2023-05-19T23:42:22.613Z,16.00
2023-05-19T23:45:25.611Z,17.20
2023-05-19T23:48:29.489Z,16.10
2023-05-19T23:51:32.349Z,15.50
2023-05-19T23:54:35.411Z,17.40
2023-05-19T23:57:38.375Z,18.60
